createdAt,value
2022-10-21T00:00:16.510Z,953.02
2022-10-21T00:01:16.496Z,952.97
2022-10-21T00:02:16.485Z,953.05
2022-10-21T00:03:16.473Z,953.02
2022-10-21T00:04:16.464Z,952.98
2022-10-21T00:05:16.478Z,952.94
2022-10-21T00:06:16.436Z,952.93
2022-10-21T00:07:16.423Z,952.95
2022-10-21T00:08:16.412Z,952.86
2022-10-21T00:09:16.398Z,952.88
2022-10-21T00:10:16.387Z,952.83
2022-10-21T00:11:16.374Z,952.83
2022-10-21T00:12:16.363Z,952.75
2022-10-21T00:13:16.349Z,952.77
2022-10-21T00:14:16.339Z,952.78
2022-10-21T00:15:16.325Z,952.84
2022-10-21T00:16:16.316Z,952.83
2022-10-21T00:17:16.300Z,952.86
2022-10-21T00:18:16.288Z,952.85
2022-10-21T00:19:16.276Z,952.87
2022-10-21T00:20:16.302Z,952.88
2022-10-21T00:21:16.278Z,952.96
2022-10-21T00:22:16.238Z,952.91
2022-10-21T00:23:16.227Z,952.92
2022-10-21T00:24:16.212Z,952.83
2022-10-21T00:25:16.205Z,952.8
2022-10-21T00:26:16.968Z,952.8
2022-10-21T00:27:16.954Z,952.81
2022-10-21T00:28:16.941Z,952.77
2022-10-21T00:29:16.983Z,952.73
2022-10-21T00:30:16.915Z,952.66
2022-10-21T00:31:16.906Z,952.73
2022-10-21T00:32:16.892Z,952.64
2022-10-21T00:33:16.881Z,952.51
2022-10-21T00:34:16.866Z,952.38
2022-10-21T00:35:16.858Z,952.41
2022-10-21T00:36:16.845Z,952.48
2022-10-21T00:37:16.858Z,952.44
2022-10-21T00:38:16.857Z,952.42
2022-10-21T00:39:16.807Z,952.42
2022-10-21T00:40:16.794Z,952.43
2022-10-21T00:41:16.781Z,952.38
2022-10-21T00:42:16.769Z,952.34
2022-10-21T00:43:16.758Z,952.37
2022-10-21T00:44:16.744Z,952.39
2022-10-21T00:45:16.734Z,952.41
2022-10-21T00:46:16.719Z,952.43
2022-10-21T00:47:16.709Z,952.41
2022-10-21T00:48:16.693Z,952.44
2022-10-21T00:49:16.684Z,952.36
2022-10-21T00:50:16.670Z,952.33
2022-10-21T00:51:16.660Z,952.26
2022-10-21T00:52:16.646Z,952.33
2022-10-21T00:53:16.661Z,952.35
2022-10-21T00:54:16.621Z,952.35
2022-10-21T00:55:16.611Z,952.3
2022-10-21T00:56:16.875Z,952.34
2022-10-21T00:57:16.587Z,952.31
2022-10-21T00:58:16.574Z,952.28
2022-10-21T00:59:16.561Z,952.3
2022-10-21T01:00:16.547Z,952.34
2022-10-21T01:01:17.851Z,952.33
2022-10-21T01:02:16.522Z,952.3
2022-10-21T01:03:16.514Z,952.31
2022-10-21T01:04:16.498Z,952.34
2022-10-21T01:05:16.487Z,952.33
2022-10-21T01:06:16.472Z,952.29
2022-10-21T01:07:16.462Z,952.24
2022-10-21T01:08:16.449Z,952.21
2022-10-21T01:09:16.544Z,952.15
2022-10-21T01:10:16.425Z,952.18
2022-10-21T01:11:16.410Z,952.11
2022-10-21T01:12:16.401Z,952.19
2022-10-21T01:13:16.385Z,952.13
2022-10-21T01:14:16.377Z,952.12
2022-10-21T01:15:16.362Z,952.05
2022-10-21T01:16:16.349Z,951.99
2022-10-21T01:17:20.849Z,951.96
2022-10-21T01:18:16.326Z,951.94
2022-10-21T01:19:16.311Z,951.84
2022-10-21T01:20:16.302Z,951.84
2022-10-21T01:21:16.285Z,951.82
2022-10-21T01:22:16.277Z,951.8
2022-10-21T01:23:16.262Z,951.82
2022-10-21T01:24:16.250Z,951.82
2022-10-21T01:25:16.262Z,951.75
2022-10-21T01:26:16.227Z,951.8
2022-10-21T01:27:16.213Z,951.78
2022-10-21T01:28:16.202Z,951.75
2022-10-21T01:29:16.187Z,951.72
2022-10-21T01:30:16.176Z,951.72
2022-10-21T01:31:16.163Z,951.66
2022-10-21T01:32:16.151Z,951.65
2022-10-21T01:33:16.139Z,951.55
2022-10-21T01:34:16.130Z,951.47
2022-10-21T01:35:16.116Z,951.41
2022-10-21T01:36:16.105Z,951.28
2022-10-21T01:37:16.087Z,951.21
2022-10-21T01:38:16.077Z,951.21
2022-10-21T01:39:16.062Z,951.21
2022-10-21T01:40:16.052Z,951.21
2022-10-21T01:41:16.063Z,951.21
2022-10-21T01:42:16.027Z,951.18
2022-10-21T01:43:16.012Z,951.22
2022-10-21T01:44:16.003Z,951.18
2022-10-21T01:45:15.988Z,951.21
2022-10-21T01:46:15.977Z,951.2
2022-10-21T01:47:15.964Z,951.26
2022-10-21T01:48:15.952Z,951.4
2022-10-21T01:49:15.948Z,951.35
2022-10-21T01:50:15.928Z,951.4
2022-10-21T01:51:15.947Z,951.44
2022-10-21T01:52:15.902Z,951.38
2022-10-21T01:53:15.888Z,951.38
2022-10-21T01:54:15.876Z,951.44
2022-10-21T01:55:15.863Z,951.47
2022-10-21T01:56:15.852Z,951.39
2022-10-21T01:57:15.864Z,951.43
2022-10-21T01:58:15.825Z,951.39
2022-10-21T01:59:15.813Z,951.46
2022-10-21T02:00:15.846Z,951.46
2022-10-21T02:01:15.848Z,951.46
2022-10-21T02:02:15.772Z,951.45
2022-10-21T02:03:15.765Z,951.45
2022-10-21T02:04:15.749Z,951.39
2022-10-21T02:05:15.737Z,951.38
2022-10-21T02:06:15.733Z,951.38
2022-10-21T02:07:15.711Z,951.41
2022-10-21T02:08:15.697Z,951.42
2022-10-21T02:09:15.764Z,951.4
2022-10-21T02:10:15.671Z,951.36
2022-10-21T02:11:15.664Z,951.36
2022-10-21T02:12:15.646Z,951.36
2022-10-21T02:13:15.665Z,951.31
2022-10-21T02:14:15.620Z,951.23
2022-10-21T02:15:15.615Z,951.2
2022-10-21T02:16:15.593Z,951.23
2022-10-21T02:17:15.582Z,951.26
2022-10-21T02:18:15.572Z,951.31
2022-10-21T02:19:15.555Z,951.27
2022-10-21T02:20:15.543Z,951.33
2022-10-21T02:21:15.533Z,951.34
2022-10-21T02:22:15.516Z,951.3
2022-10-21T02:23:15.505Z,951.36
2022-10-21T02:24:15.524Z,951.29
2022-10-21T02:25:15.478Z,951.25
2022-10-21T02:26:15.465Z,951.21
2022-10-21T02:27:15.454Z,951.19
2022-10-21T02:28:15.439Z,951.19
2022-10-21T02:29:15.452Z,951.22
2022-10-21T02:30:15.412Z,951.26
2022-10-21T02:31:15.407Z,951.28
2022-10-21T02:32:15.387Z,951.25
2022-10-21T02:33:15.375Z,951.22
2022-10-21T02:34:15.360Z,951.13
2022-10-21T02:35:15.349Z,951.11
2022-10-21T02:36:15.337Z,951.03
2022-10-21T02:37:15.329Z,951.01
2022-10-21T02:38:15.309Z,950.92
2022-10-21T02:39:15.297Z,950.86
2022-10-21T02:40:15.283Z,950.81
2022-10-21T02:41:15.270Z,950.82
2022-10-21T02:42:15.255Z,950.7
2022-10-21T02:43:15.253Z,950.78
2022-10-21T02:44:15.230Z,950.8
2022-10-21T02:45:15.242Z,950.82
2022-10-21T02:46:15.208Z,950.89
2022-10-21T02:47:15.201Z,950.95
2022-10-21T02:48:15.177Z,950.89
2022-10-21T02:49:15.167Z,950.94
2022-10-21T02:50:15.156Z,950.95
2022-10-21T02:51:15.150Z,950.93
2022-10-21T02:52:15.127Z,950.91
2022-10-21T02:53:15.112Z,950.96
2022-10-21T02:54:15.102Z,950.89
2022-10-21T02:55:15.086Z,950.83
2022-10-21T02:56:15.073Z,950.82
2022-10-21T02:57:15.061Z,950.72
2022-10-21T02:58:15.047Z,950.7
2022-10-21T02:59:15.040Z,950.71
2022-10-21T03:00:15.021Z,950.76
2022-10-21T03:01:15.075Z,950.81
2022-10-21T03:02:14.996Z,950.75
2022-10-21T03:03:14.982Z,950.75
2022-10-21T03:04:14.999Z,950.77
2022-10-21T03:05:14.957Z,950.77
2022-10-21T03:06:14.945Z,950.8
2022-10-21T03:07:14.928Z,950.75
2022-10-21T03:08:14.918Z,950.7
2022-10-21T03:09:14.905Z,950.63
2022-10-21T03:10:14.916Z,950.59
2022-10-21T03:11:14.877Z,950.51
2022-10-21T03:12:14.867Z,950.4
2022-10-21T03:13:14.852Z,950.39
2022-10-21T03:14:14.843Z,950.47
2022-10-21T03:15:14.826Z,950.45
2022-10-21T03:16:14.856Z,950.41
2022-10-21T03:17:14.827Z,950.38
2022-10-21T03:18:14.794Z,950.39
2022-10-21T03:19:14.773Z,950.32
2022-10-21T03:20:14.761Z,950.31
2022-10-21T03:21:14.746Z,950.37
2022-10-21T03:22:14.735Z,950.24
2022-10-21T03:23:14.723Z,950.28
2022-10-21T03:24:15.350Z,950.24
2022-10-21T03:25:14.694Z,950.25
2022-10-21T03:26:14.683Z,950.19
2022-10-21T03:27:14.669Z,950.15
2022-10-21T03:28:14.674Z,950.24
2022-10-21T03:29:14.643Z,950.22
2022-10-21T03:30:14.633Z,950.17
2022-10-21T03:31:14.617Z,950.2
2022-10-21T03:32:14.608Z,950.17
2022-10-21T03:49:32.519Z,950.24
2022-10-21T03:50:32.363Z,950.23
2022-10-21T03:51:32.352Z,950.24
2022-10-21T03:52:32.330Z,950.25
2022-10-21T03:53:42.624Z,950.22
2022-10-21T03:54:32.300Z,950.24
2022-10-21T03:55:32.287Z,950.27
2022-10-21T03:56:32.270Z,950.2
2022-10-21T03:57:32.256Z,950.23
2022-10-21T03:58:32.241Z,950.23
2022-10-21T03:59:32.228Z,950.23
2022-10-21T04:00:32.212Z,950.24
2022-10-21T04:01:32.270Z,950.2
2022-10-21T04:02:32.185Z,950.21
2022-10-21T04:03:32.173Z,950.17
2022-10-21T04:04:32.175Z,950.19
2022-10-21T04:05:32.169Z,950.21
2022-10-21T04:06:32.129Z,950.17
2022-10-21T04:07:32.114Z,950.24
2022-10-21T04:08:32.135Z,950.21
2022-10-21T04:09:32.087Z,950.21
2022-10-21T04:10:32.073Z,950.21
2022-10-21T04:11:32.061Z,950.14
2022-10-21T04:12:32.046Z,950.1
2022-10-21T04:13:32.033Z,949.95
2022-10-21T04:14:32.019Z,950.04
2022-10-21T04:15:32.010Z,950.03
2022-10-21T04:16:31.992Z,950.07
2022-10-21T04:17:31.979Z,950.03
2022-10-21T04:18:31.964Z,950.06
2022-10-21T04:19:31.953Z,950.05
2022-10-21T04:20:31.939Z,950.01
2022-10-21T04:21:31.952Z,950.04
2022-10-21T04:22:31.913Z,949.98
2022-10-21T04:23:31.901Z,950.04
2022-10-21T04:24:31.885Z,950.01
2022-10-21T04:25:31.875Z,949.98
2022-10-21T04:26:31.857Z,949.95
2022-10-21T04:27:31.845Z,949.89
2022-10-21T04:28:31.833Z,949.9
2022-10-21T04:29:32.568Z,949.88
2022-10-21T04:30:32.553Z,949.83
2022-10-21T04:31:32.543Z,949.82
2022-10-21T04:32:32.526Z,949.73
2022-10-21T04:33:32.514Z,949.73
2022-10-21T04:34:32.500Z,949.66
2022-10-21T04:35:32.489Z,949.74
2022-10-21T04:36:32.474Z,949.65
2022-10-21T04:37:32.486Z,949.61
2022-10-21T04:38:32.448Z,949.69
2022-10-21T04:39:32.444Z,949.64
2022-10-21T04:40:32.424Z,949.65
2022-10-21T04:41:32.407Z,949.66
2022-10-21T04:42:32.396Z,949.65
2022-10-21T04:43:32.383Z,949.53
2022-10-21T04:44:32.371Z,949.62
2022-10-21T04:45:32.850Z,949.48
2022-10-21T04:46:32.837Z,949.54
2022-10-21T04:47:32.822Z,949.57
2022-10-21T04:48:32.811Z,949.54
2022-10-21T04:49:32.798Z,949.51
2022-10-21T04:50:32.783Z,949.53
2022-10-21T04:51:32.961Z,949.56
2022-10-21T04:52:32.784Z,949.52
2022-10-21T04:53:32.769Z,949.6
2022-10-21T04:54:32.732Z,949.56
2022-10-21T04:55:32.717Z,949.64
2022-10-21T04:56:32.705Z,949.58
2022-10-21T04:57:32.689Z,949.64
2022-10-21T04:58:32.678Z,949.57
2022-10-21T04:59:32.667Z,949.61
2022-10-21T05:00:32.723Z,949.62
2022-10-21T05:01:32.766Z,949.62
2022-10-21T05:02:32.630Z,949.63
2022-10-21T05:03:32.612Z,949.56
2022-10-21T05:04:32.599Z,949.65
2022-10-21T05:05:32.586Z,949.59
2022-10-21T05:06:32.575Z,949.64
2022-10-21T05:07:32.566Z,949.58
2022-10-21T05:08:32.585Z,949.55
2022-10-21T05:09:32.558Z,949.61
2022-10-21T05:10:32.521Z,949.68
2022-10-21T05:11:32.505Z,949.6
2022-10-21T05:12:32.530Z,949.6
2022-10-21T05:13:32.478Z,949.62
2022-10-21T05:14:32.467Z,949.65
2022-10-21T05:15:32.450Z,949.69
2022-10-21T05:16:32.440Z,949.56
2022-10-21T05:17:32.424Z,949.52
2022-10-21T05:18:32.413Z,949.57
2022-10-21T05:19:32.400Z,949.56
2022-10-21T05:20:32.388Z,949.52
2022-10-21T05:21:32.446Z,949.55
2022-10-21T05:22:32.361Z,949.44
2022-10-21T05:23:32.345Z,949.49
2022-10-21T05:24:32.334Z,949.56
2022-10-21T05:25:34.092Z,949.51
2022-10-21T05:26:32.312Z,949.58
2022-10-21T05:27:32.292Z,949.52
2022-10-21T05:28:32.280Z,949.5
2022-10-21T05:29:32.267Z,949.53
2022-10-21T05:30:32.318Z,949.67
2022-10-21T05:31:32.238Z,949.57
2022-10-21T05:32:32.224Z,949.54
2022-10-21T05:33:32.217Z,949.62
2022-10-21T05:34:32.204Z,949.46
2022-10-21T05:35:32.186Z,949.71
2022-10-21T05:36:32.171Z,949.49
2022-10-21T05:37:32.160Z,949.52
2022-10-21T05:38:32.144Z,949.64
2022-10-21T05:39:32.166Z,949.64
2022-10-21T05:40:32.117Z,949.55
2022-10-21T05:41:32.131Z,949.6
2022-10-21T05:42:32.092Z,949.43
2022-10-21T05:43:32.085Z,949.6
2022-10-21T05:44:32.064Z,949.54
2022-10-21T05:45:32.052Z,949.4
2022-10-21T05:46:32.037Z,949.59
2022-10-21T05:47:32.025Z,949.57
2022-10-21T05:48:32.010Z,949.57
2022-10-21T05:49:31.998Z,949.52
2022-10-21T05:50:31.982Z,949.59
2022-10-21T05:51:31.970Z,949.59
2022-10-21T05:52:31.955Z,949.52
2022-10-21T05:53:31.944Z,949.5
2022-10-21T05:54:31.929Z,949.55
2022-10-21T05:55:31.917Z,949.56
2022-10-21T05:56:31.900Z,949.5
2022-10-21T05:57:31.913Z,949.45
2022-10-21T05:58:31.874Z,949.55
2022-10-21T05:59:31.862Z,949.53
2022-10-21T06:00:31.846Z,949.58
2022-10-21T06:01:31.912Z,949.54
2022-10-21T06:02:31.820Z,949.57
2022-10-21T06:03:31.807Z,949.54
2022-10-21T06:04:34.930Z,949.55
2022-10-21T06:05:31.781Z,949.62
2022-10-21T06:06:31.765Z,949.64
2022-10-21T06:07:31.753Z,949.5
2022-10-21T06:08:31.833Z,949.57
2022-10-21T06:09:31.727Z,949.58
2022-10-21T06:10:31.711Z,949.52
2022-10-21T06:11:31.702Z,949.61
2022-10-21T06:12:31.684Z,949.53
2022-10-21T06:13:31.697Z,949.53
2022-10-21T06:14:31.657Z,949.58
2022-10-21T06:15:31.645Z,949.61
2022-10-21T06:16:31.631Z,949.66
2022-10-21T06:17:31.618Z,949.58
2022-10-21T06:18:31.603Z,949.71
2022-10-21T06:19:31.591Z,949.71
2022-10-21T06:20:31.576Z,949.71
2022-10-21T06:21:31.562Z,949.71
2022-10-21T06:22:31.548Z,949.76
2022-10-21T06:23:31.535Z,949.71
2022-10-21T06:24:31.530Z,949.76
2022-10-21T06:25:31.506Z,949.85
2022-10-21T06:26:33.253Z,949.87
2022-10-21T06:27:31.480Z,949.86
2022-10-21T06:28:31.469Z,949.8
2022-10-21T06:29:31.479Z,949.8
2022-10-21T06:30:31.443Z,949.79
2022-10-21T06:31:31.430Z,949.83
2022-10-21T06:32:31.420Z,949.89
2022-10-21T06:33:31.401Z,949.84
2022-10-21T06:34:31.389Z,949.89
2022-10-21T06:35:31.378Z,949.89
2022-10-21T06:36:31.363Z,949.87
2022-10-21T06:37:31.349Z,949.84
2022-10-21T06:38:31.337Z,949.82
2022-10-21T06:39:31.323Z,949.86
2022-10-21T06:40:31.310Z,949.9
2022-10-21T06:41:31.293Z,949.89
2022-10-21T06:42:31.283Z,949.93
2022-10-21T06:43:31.267Z,949.98
2022-10-21T06:44:31.256Z,949.91
2022-10-21T06:45:31.266Z,949.97
2022-10-21T06:46:31.230Z,949.98
2022-10-21T06:47:31.214Z,950.06
2022-10-21T06:48:31.203Z,949.99
2022-10-21T06:49:31.189Z,950.07
2022-10-21T06:50:31.177Z,950.13
2022-10-21T06:51:31.163Z,950.11
2022-10-21T06:52:31.153Z,950.13
2022-10-21T06:53:32.067Z,950.09
2022-10-21T06:54:31.124Z,950.13
2022-10-21T06:55:31.113Z,950.14
2022-10-21T06:56:31.100Z,950.07
2022-10-21T06:57:31.085Z,950.16
2022-10-21T06:58:31.074Z,950.21
2022-10-21T06:59:31.060Z,950.17
2022-10-21T07:01:41.677Z,950.17
2022-10-21T07:02:31.022Z,950.2
2022-10-21T07:03:31.009Z,950.24
2022-10-21T07:04:30.999Z,950.24
2022-10-21T07:05:30.981Z,950.22
2022-10-21T07:06:30.977Z,950.25
2022-10-21T07:07:30.959Z,950.24
2022-10-21T07:08:40.236Z,950.21
2022-10-21T07:09:30.989Z,950.24
2022-10-21T07:10:30.922Z,950.16
2022-10-21T07:11:30.907Z,950.22
2022-10-21T07:12:30.895Z,950.21
2022-10-21T07:13:30.882Z,950.1
2022-10-21T07:14:30.869Z,950.04
2022-10-21T07:15:30.860Z,950.06
2022-10-21T07:16:30.843Z,950.09
2022-10-21T07:17:30.859Z,950.13
2022-10-21T07:18:30.817Z,950.1
2022-10-21T07:19:30.807Z,950.09
2022-10-21T07:20:30.792Z,950.06
2022-10-21T07:21:30.784Z,950.07
2022-10-21T07:22:30.769Z,950.06
2022-10-21T07:23:30.758Z,950.12
2022-10-21T07:24:30.743Z,950.1
2022-10-21T07:25:30.733Z,950.1
2022-10-21T07:26:30.722Z,950.01
2022-10-21T07:27:30.708Z,950.11
2022-10-21T07:28:30.694Z,949.97
2022-10-21T07:29:30.684Z,950
2022-10-21T07:30:30.672Z,950.03
2022-10-21T07:31:30.660Z,949.96
2022-10-21T07:32:30.645Z,950.05
2022-10-21T07:33:30.670Z,950.04
2022-10-21T07:34:30.634Z,950.1
2022-10-21T07:35:30.609Z,950.16
2022-10-21T07:36:30.597Z,950.15
2022-10-21T07:37:30.586Z,950.14
2022-10-21T07:38:30.572Z,950.13
2022-10-21T07:39:30.562Z,950.15
2022-10-21T07:40:30.550Z,950.14
2022-10-21T07:41:30.537Z,950.15
2022-10-21T07:42:30.523Z,950.17
2022-10-21T07:43:30.513Z,950.13
2022-10-21T07:44:30.502Z,950.18
2022-10-21T07:45:30.489Z,950.16
2022-10-21T07:46:30.884Z,950.14
2022-10-21T07:47:30.871Z,950.13
2022-10-21T07:48:30.858Z,950.12
2022-10-21T07:49:30.871Z,950.05
2022-10-21T07:50:30.835Z,950.06
2022-10-21T07:51:31.425Z,950.13
2022-10-21T07:52:31.665Z,950.11
2022-10-21T07:53:30.799Z,950.04
2022-10-21T07:54:30.784Z,950.07
2022-10-21T07:55:30.774Z,950.06
2022-10-21T07:56:30.762Z,950.07
2022-10-21T07:57:30.751Z,950.11
2022-10-21T07:58:30.736Z,950.07
2022-10-21T07:59:30.727Z,950.09
2022-10-21T08:00:30.714Z,950.07
2022-10-21T08:01:30.783Z,950.05
2022-10-21T08:02:30.690Z,950.02
2022-10-21T08:03:30.681Z,950
2022-10-21T08:04:30.666Z,950.06
2022-10-21T08:05:30.678Z,950.04
2022-10-21T08:06:30.643Z,950.06
2022-10-21T08:07:30.633Z,950.1
2022-10-21T08:08:31.497Z,950.15
2022-10-21T08:09:31.432Z,950.22
2022-10-21T08:10:31.421Z,950.26
2022-10-21T08:11:31.408Z,950.29
2022-10-21T08:12:31.398Z,950.27
2022-10-21T08:13:31.386Z,950.31
2022-10-21T08:14:31.378Z,950.25
2022-10-21T08:15:31.362Z,950.27
2022-10-21T08:16:31.351Z,950.25
2022-10-21T08:17:31.339Z,950.28
2022-10-21T08:18:31.330Z,950.25
2022-10-21T08:19:31.315Z,950.24
2022-10-21T08:20:31.305Z,950.21
2022-10-21T08:21:31.319Z,950.2
2022-10-21T08:22:31.283Z,950.27
2022-10-21T08:23:31.270Z,950.25
2022-10-21T08:24:31.260Z,950.21
2022-10-21T08:25:31.250Z,950.22
2022-10-21T08:26:31.237Z,950.14
2022-10-21T08:27:31.225Z,950.1
2022-10-21T08:28:31.215Z,950.08
2022-10-21T08:29:31.669Z,950.07
2022-10-21T08:30:31.819Z,950.1
2022-10-21T08:31:31.795Z,950.11
2022-10-21T08:32:31.784Z,950.08
2022-10-21T08:33:31.771Z,950.06
2022-10-21T08:34:31.763Z,950.02
2022-10-21T08:35:31.750Z,950.01
2022-10-21T08:36:31.739Z,949.99
2022-10-21T08:37:31.751Z,950
2022-10-21T08:38:31.718Z,950.04
2022-10-21T08:39:31.707Z,950.06
2022-10-21T08:40:31.697Z,950.02
2022-10-21T08:41:31.684Z,950.06
2022-10-21T08:42:31.674Z,950.03
2022-10-21T08:43:31.661Z,950.06
2022-10-21T08:44:31.653Z,949.98
2022-10-21T08:45:31.641Z,949.97
2022-10-21T08:46:31.631Z,950.01
2022-10-21T08:47:31.618Z,950.08
2022-10-21T08:48:31.608Z,950.06
2022-10-21T08:49:31.597Z,950.11
2022-10-21T08:50:31.588Z,950.11
2022-10-21T08:51:31.581Z,950.1
2022-10-21T08:52:31.708Z,950.05
2022-10-21T08:53:31.721Z,950.02
2022-10-21T08:54:31.689Z,949.99
2022-10-21T08:55:31.676Z,949.96
2022-10-21T08:56:31.674Z,949.9
2022-10-21T08:57:31.657Z,950
2022-10-21T08:58:31.645Z,949.92
2022-10-21T08:59:31.638Z,949.91
2022-10-21T09:00:31.625Z,950
2022-10-21T09:01:31.616Z,950.04
2022-10-21T09:02:31.640Z,950.1
2022-10-21T09:03:31.596Z,950.09
2022-10-21T09:04:31.585Z,950.13
2022-10-21T09:05:31.579Z,950.13
2022-10-21T09:06:31.566Z,950.13
2022-10-21T09:07:31.558Z,950.18
2022-10-21T09:08:31.583Z,950.26
2022-10-21T09:09:31.563Z,950.21
2022-10-21T09:10:31.529Z,950.23
2022-10-21T09:11:31.517Z,950.15
2022-10-21T09:12:31.508Z,950.14
2022-10-21T09:13:31.498Z,950.08
2022-10-21T09:14:31.843Z,950.09
2022-10-21T09:15:31.830Z,950.05
2022-10-21T09:16:31.818Z,950.03
2022-10-21T09:17:31.811Z,950.02
2022-10-21T09:18:31.800Z,949.96
2022-10-21T09:19:31.793Z,949.97
2022-10-21T09:20:31.782Z,949.92
2022-10-21T09:21:31.774Z,949.98
2022-10-21T09:22:35.933Z,949.97
2022-10-21T09:24:31.756Z,950
2022-10-21T09:25:31.759Z,950.08
2022-10-21T09:26:31.725Z,950.08
2022-10-21T09:27:51.206Z,950.11
2022-10-21T09:28:31.709Z,950.14
2022-10-21T09:29:31.701Z,950.11
2022-10-21T09:30:31.691Z,950.12
2022-10-21T09:31:31.686Z,950.13
2022-10-21T09:32:31.674Z,950.16
2022-10-21T09:33:31.665Z,950.18
2022-10-21T09:34:31.656Z,950.19
2022-10-21T09:35:31.649Z,950.2
2022-10-21T09:36:32.262Z,950.21
2022-10-21T09:37:34.578Z,950.26
2022-10-21T09:38:32.247Z,950.27
2022-10-21T09:39:32.236Z,950.22
2022-10-21T09:40:32.228Z,950.29
2022-10-21T09:41:32.245Z,950.23
2022-10-21T09:42:48.251Z,950.28
2022-10-21T09:43:32.202Z,950.27
2022-10-21T09:44:32.191Z,950.28
2022-10-21T09:45:32.187Z,950.23
2022-10-21T09:46:32.174Z,950.29
2022-10-21T09:47:32.166Z,950.25
2022-10-21T09:48:38.229Z,950.37
2022-10-21T09:50:17.951Z,950.35
2022-10-21T09:51:17.852Z,950.3
2022-10-21T09:52:17.843Z,950.27
2022-10-21T09:53:19.506Z,950.27
2022-10-21T09:54:17.826Z,950.3
2022-10-21T09:55:17.819Z,950.33
2022-10-21T09:56:17.808Z,950.33
2022-10-21T09:57:17.827Z,950.34
2022-10-21T09:58:17.790Z,950.39
2022-10-21T09:59:17.783Z,950.38
2022-10-21T10:00:17.773Z,950.37
2022-10-21T10:01:17.765Z,950.32
2022-10-21T10:02:17.814Z,950.37
2022-10-21T10:03:17.749Z,950.33
2022-10-21T10:04:17.739Z,950.35
2022-10-21T10:05:17.731Z,950.35
2022-10-21T10:06:17.735Z,950.35
2022-10-21T10:07:17.714Z,950.3
2022-10-21T10:08:17.704Z,950.33
2022-10-21T10:09:17.699Z,950.33
2022-10-21T10:10:17.687Z,950.26
2022-10-21T10:11:17.679Z,950.32
2022-10-21T10:12:17.668Z,950.29
2022-10-21T10:13:17.686Z,950.31
2022-10-21T10:14:17.652Z,950.34
2022-10-21T10:15:17.645Z,950.31
2022-10-21T10:16:17.635Z,950.36
2022-10-21T10:17:17.628Z,950.31
2022-10-21T10:18:17.617Z,950.34
2022-10-21T10:19:17.613Z,950.29
2022-10-21T10:20:17.603Z,950.28
2022-10-21T10:21:17.592Z,950.27
2022-10-21T10:22:17.584Z,950.26
2022-10-21T10:23:17.575Z,950.24
2022-10-21T10:24:17.566Z,950.21
2022-10-21T10:25:17.558Z,950.17
2022-10-21T10:26:17.549Z,950.19
2022-10-21T10:27:17.542Z,950.18
2022-10-21T10:28:17.531Z,950.18
2022-10-21T10:29:17.641Z,950.14
2022-10-21T10:30:17.514Z,950.13
2022-10-21T10:31:17.505Z,950.2
2022-10-21T10:32:17.496Z,950.19
2022-10-21T10:33:17.489Z,950.21
2022-10-21T10:34:17.479Z,950.18
2022-10-21T10:35:17.471Z,950.17
2022-10-21T10:36:17.460Z,950.22
2022-10-21T10:37:17.455Z,950.19
2022-10-21T10:38:17.443Z,950.22
2022-10-21T10:39:17.436Z,950.19
2022-10-21T10:40:17.427Z,950.15
2022-10-21T10:41:17.417Z,950.22
2022-10-21T10:42:17.409Z,950.24
2022-10-21T10:43:17.399Z,950.29
2022-10-21T10:44:17.393Z,950.35
2022-10-21T10:45:17.503Z,950.31
2022-10-21T10:46:17.377Z,950.16
2022-10-21T10:47:17.367Z,950.07
2022-10-21T10:48:17.361Z,950.11
2022-10-21T10:49:17.349Z,950.16
2022-10-21T10:50:17.344Z,950.05
2022-10-21T10:51:17.333Z,950.03
2022-10-21T10:52:17.326Z,950
2022-10-21T10:53:17.314Z,950
2022-10-21T10:54:17.308Z,950
2022-10-21T10:55:17.299Z,949.97
2022-10-21T10:56:17.303Z,950.01
2022-10-21T10:57:17.291Z,949.92
2022-10-21T10:58:18.684Z,949.97
2022-10-21T10:59:17.269Z,949.96
2022-10-21T11:00:17.264Z,949.96
2022-10-21T11:01:17.405Z,949.92
2022-10-21T11:02:17.243Z,949.97
2022-10-21T11:03:17.232Z,949.96
2022-10-21T11:04:17.228Z,949.95
2022-10-21T11:05:17.219Z,949.95
2022-10-21T11:06:17.217Z,949.93
2022-10-21T11:07:17.200Z,949.94
2022-10-21T11:08:17.196Z,949.96
2022-10-21T11:09:17.239Z,949.96
2022-10-21T11:10:17.177Z,949.94
2022-10-21T11:11:17.169Z,949.97
2022-10-21T11:12:17.161Z,949.98
2022-10-21T11:13:17.152Z,949.93
2022-10-21T11:14:18.834Z,949.97
2022-10-21T11:15:17.135Z,949.99
2022-10-21T11:16:17.128Z,949.97
2022-10-21T11:17:17.238Z,949.95
2022-10-21T11:18:25.055Z,949.96
2022-10-21T11:19:17.102Z,949.93
2022-10-21T11:20:17.095Z,949.93
2022-10-21T11:21:17.086Z,949.93
2022-10-21T11:22:17.079Z,949.97
2022-10-21T11:23:17.071Z,949.98
2022-10-21T11:24:17.062Z,949.94
2022-10-21T11:25:17.052Z,949.93
2022-10-21T11:26:17.046Z,949.93
2022-10-21T11:27:18.952Z,949.92
2022-10-21T11:28:17.030Z,949.82
2022-10-21T11:29:17.018Z,949.87
2022-10-21T11:30:17.012Z,949.86
2022-10-21T11:31:17.005Z,949.83
2022-10-21T11:32:16.994Z,949.86
2022-10-21T11:33:17.103Z,949.87
2022-10-21T11:34:16.979Z,949.84
2022-10-21T11:35:16.973Z,949.85
2022-10-21T11:36:16.963Z,949.82
2022-10-21T11:37:16.954Z,949.78
2022-10-21T11:38:16.946Z,949.74
2022-10-21T11:39:20.649Z,949.71
2022-10-21T11:40:16.928Z,949.73
2022-10-21T11:42:16.912Z,949.71
2022-10-21T11:43:16.909Z,949.74
2022-10-21T11:44:16.897Z,949.79
2022-10-21T11:45:16.890Z,949.75
2022-10-21T11:46:16.881Z,949.78
2022-10-21T11:47:16.874Z,949.71
2022-10-21T11:48:16.864Z,949.7
2022-10-21T11:49:16.977Z,949.66
2022-10-21T11:50:16.887Z,949.65
2022-10-21T11:51:16.948Z,949.63
2022-10-21T11:52:16.831Z,949.62
2022-10-21T11:53:16.827Z,949.61
2022-10-21T11:54:16.816Z,949.58
2022-10-21T11:55:16.807Z,949.56
2022-10-21T11:56:16.798Z,949.57
2022-10-21T11:57:16.793Z,949.61
2022-10-21T11:58:16.781Z,949.65
2022-10-21T11:59:16.827Z,949.64
2022-10-21T12:00:16.765Z,949.62
2022-10-21T12:01:16.757Z,949.66
2022-10-21T12:02:16.816Z,949.61
2022-10-21T12:03:16.845Z,949.67
2022-10-21T12:04:16.831Z,949.67
2022-10-21T12:05:16.941Z,949.66
2022-10-21T12:06:16.813Z,949.69
2022-10-21T12:07:16.808Z,949.67
2022-10-21T12:08:16.858Z,949.72
2022-10-21T12:09:16.789Z,949.68
2022-10-21T12:10:16.780Z,949.69
2022-10-21T12:11:16.774Z,949.67
2022-10-21T12:12:16.763Z,949.64
2022-10-21T12:13:16.756Z,949.58
2022-10-21T12:14:16.746Z,949.61
2022-10-21T12:15:16.738Z,949.52
2022-10-21T12:16:16.733Z,949.49
2022-10-21T12:17:16.723Z,949.45
2022-10-21T12:18:16.720Z,949.54
2022-10-21T12:19:16.705Z,949.65
2022-10-21T12:20:19.920Z,949.7
2022-10-21T12:21:16.812Z,949.73
2022-10-21T12:22:16.679Z,949.73
2022-10-21T12:23:16.669Z,949.77
2022-10-21T12:24:16.661Z,949.69
2022-10-21T12:25:16.652Z,949.65
2022-10-21T12:26:16.644Z,949.62
2022-10-21T12:27:16.633Z,949.63
2022-10-21T12:28:16.626Z,949.55
2022-10-21T12:29:16.618Z,949.51
2022-10-21T12:30:16.609Z,949.46
2022-10-21T12:31:16.603Z,949.5
2022-10-21T12:32:16.594Z,949.47
2022-10-21T12:33:16.584Z,949.46
2022-10-21T12:34:16.575Z,949.41
2022-10-21T12:35:16.566Z,949.43
2022-10-21T12:36:16.563Z,949.48
2022-10-21T12:37:16.666Z,949.45
2022-10-21T12:38:16.550Z,949.4
2022-10-21T12:39:16.532Z,949.42
2022-10-21T12:40:16.527Z,949.32
2022-10-21T12:41:16.513Z,949.36
2022-10-21T12:42:16.509Z,949.42
2022-10-21T12:43:16.497Z,949.44
2022-10-21T12:44:16.489Z,949.36
2022-10-21T12:45:16.478Z,949.4
2022-10-21T12:46:16.472Z,949.4
2022-10-21T12:47:17.252Z,949.4
2022-10-21T12:48:17.244Z,949.5
2022-10-21T12:49:17.235Z,949.46
2022-10-21T12:50:17.225Z,949.58
2022-10-21T12:51:17.216Z,949.63